Airfield :







YOU CAN JOIN US ON...

 
LOGIN :

Register | Disclaimer

   EN    FR    IT 

 









Legend :    VFR   Marginal VFR   IFR   Intensive IFR   Very Intensive IFR
Visi :
Ceiling :
>= 8 km
>= 3000ft
5 to 8 km
1000 to 3000 ft
1500m to 5 km
500 to 1000 ft
800 to 1500m
200 to 500 ft
< 800m
< 200 ft
Symbols :   Thunderstorms  Fog  Heavy snow  Heavy precipitations  Wind > 20 kt






- Airport Elevation : 11 ft


KGHG - Marshfield Municipal George Harlow Field

CURRENT METAR :
  • 172215Z AUTO 26011G23KT 220V290 10SM BKN039 SCT048 BKN065 12/05 A2917 RMK AO2

EXPIRED METARs :
  • 172155Z AUTO 26008G22KT 210V290 10SM SCT038 SCT075 12/05 A2916 RMK AO2
  • 172135Z AUTO 27011G28KT 240V300 10SM SCT039 SCT046 12/05 A2915 RMK AO2
  • 172115Z AUTO 25014G30KT 230V320 10SM SCT040 SCT047 BKN070 13/05 A2912 RMK AO2
  • 172055Z AUTO 26016G25KT 220V330 10SM FEW043 BKN070 13/05 A2912 RMK AO2
  • 172035Z AUTO 10SM SCT037 SCT044 BKN075 13/06 A2911 RMK AO2
  • 172015Z AUTO 24010G22KT 10SM SCT039 BKN045 SCT070 13/05 A2909 RMK AO2
  • 171955Z AUTO 25011G28KT 220V280 10SM BKN039 BKN046 BKN070 13/06 A2908 RMK AO2
  • 171935Z AUTO 25016G25KT 230V290 10SM BKN037 OVC047 13/06 A2907 RMK AO2

TAF N/A



MET'MAP, your aeronautical weather chart ! - Copyright ORBIFLY December 2007 - Disclaimer

ORBIFLY MET'MAP TEAM :

Programming & Development : Alexandra Zaïnal
Concept & Development : Baudouin d'Aumeries
Co-Development & Prog : Marc-Olivier Méhu
Technical & hardware support : Manuel Goepfert

Contact : metmap@orbifly.com




SOURCES & CREDITS :

   NOAA